sensor_id;sensor_type;location;lat;lon;timestamp;P1;durP1;ratioP1;P2;durP2;ratioP2
65825;SDS011;52586;-43.152;172.732;2023-02-21T00:00:17;1.98;;;1.27;;
65825;SDS011;52586;-43.152;172.732;2023-02-21T00:03:03;3.05;;;1.00;;
65825;SDS011;52586;-43.152;172.732;2023-02-21T00:05:51;2.17;;;0.90;;
65825;SDS011;52586;-43.152;172.732;2023-02-21T00:08:38;1.90;;;0.82;;
65825;SDS011;52586;-43.152;172.732;2023-02-21T00:11:24;1.85;;;1.23;;
65825;SDS011;52586;-43.152;172.732;2023-02-21T00:14:11;1.17;;;0.80;;
65825;SDS011;52586;-43.152;172.732;2023-02-21T00:16:57;1.60;;;0.85;;
65825;SDS011;52586;-43.152;172.732;2023-02-21T00:19:44;2.90;;;1.10;;
65825;SDS011;52586;-43.152;172.732;2023-02-21T00:22:32;1.30;;;0.90;;
65825;SDS011;52586;-43.152;172.732;2023-02-21T00:25:19;0.90;;;0.80;;
65825;SDS011;52586;-43.152;172.732;2023-02-21T00:28:05;1.45;;;0.80;;
65825;SDS011;52586;-43.152;172.732;2023-02-21T00:30:52;1.48;;;1.00;;
65825;SDS011;52586;-43.152;172.732;2023-02-21T00:33:39;1.33;;;0.90;;
65825;SDS011;52586;-43.152;172.732;2023-02-21T00:36:26;2.80;;;0.80;;
65825;SDS011;52586;-43.152;172.732;2023-02-21T00:39:14;1.00;;;0.80;;
65825;SDS011;52586;-43.152;172.732;2023-02-21T00:42:01;0.90;;;0.60;;
65825;SDS011;52586;-43.152;172.732;2023-02-21T00:44:47;1.50;;;1.00;;
65825;SDS011;52586;-43.152;172.732;2023-02-21T00:47:34;1.00;;;0.77;;
65825;SDS011;52586;-43.152;172.732;2023-02-21T00:50:20;1.00;;;0.90;;
65825;SDS011;52586;-43.152;172.732;2023-02-21T00:53:06;0.85;;;0.77;;
65825;SDS011;52586;-43.152;172.732;2023-02-21T00:55:55;0.93;;;0.75;;
65825;SDS011;52586;-43.152;172.732;2023-02-21T00:58:41;0.93;;;0.60;;
65825;SDS011;52586;-43.152;172.732;2023-02-21T01:01:28;0.85;;;0.77;;
65825;SDS011;52586;-43.152;172.732;2023-02-21T01:04:15;1.35;;;0.70;;
65825;SDS011;52586;-43.152;172.732;2023-02-21T01:07:01;1.13;;;0.80;;
65825;SDS011;52586;-43.152;172.732;2023-02-21T01:09:48;1.08;;;0.68;;
65825;SDS011;52586;-43.152;172.732;2023-02-21T01:12:36;1.02;;;0.75;;
65825;SDS011;52586;-43.152;172.732;2023-02-21T01:15:22;1.38;;;0.80;;
65825;SDS011;52586;-43.152;172.732;2023-02-21T01:18:09;1.25;;;0.88;;
65825;SDS011;52586;-43.152;172.732;2023-02-21T01:20:55;1.50;;;1.02;;
65825;SDS011;52586;-43.152;172.732;2023-02-21T01:23:42;0.93;;;0.70;;
65825;SDS011;52586;-43.152;172.732;2023-02-21T01:26:28;0.68;;;0.50;;
65825;SDS011;52586;-43.152;172.732;2023-02-21T01:29:17;1.08;;;0.57;;
65825;SDS011;52586;-43.152;172.732;2023-02-21T01:32:04;0.70;;;0.60;;
65825;SDS011;52586;-43.152;172.732;2023-02-21T01:34:50;0.65;;;0.60;;
65825;SDS011;52586;-43.152;172.732;2023-02-21T01:37:38;1.00;;;0.70;;
65825;SDS011;52586;-43.152;172.732;2023-02-21T01:40:25;0.60;;;0.50;;
65825;SDS011;52586;-43.152;172.732;2023-02-21T01:43:13;1.15;;;0.70;;
65825;SDS011;52586;-43.152;172.732;2023-02-21T01:46:02;0.60;;;0.60;;
65825;SDS011;52586;-43.152;172.732;2023-02-21T01:48:50;0.80;;;0.60;;
65825;SDS011;52586;-43.152;172.732;2023-02-21T01:51:38;1.70;;;0.93;;
65825;SDS011;52586;-43.152;172.732;2023-02-21T01:54:26;0.73;;;0.60;;
65825;SDS011;52586;-43.152;172.732;2023-02-21T01:57:15;1.20;;;0.68;;
65825;SDS011;52586;-43.152;172.732;2023-02-21T02:00:03;0.93;;;0.70;;
65825;SDS011;52586;-43.152;172.732;2023-02-21T02:02:55;1.15;;;0.70;;
65825;SDS011;52586;-43.152;172.732;2023-02-21T02:05:45;0.70;;;0.40;;
65825;SDS011;52586;-43.152;172.732;2023-02-21T02:08:33;1.02;;;0.70;;
65825;SDS011;52586;-43.152;172.732;2023-02-21T02:11:24;0.77;;;0.52;;
65825;SDS011;52586;-43.152;172.732;2023-02-21T02:14:28;0.63;;;0.50;;
65825;SDS011;52586;-43.152;172.732;2023-02-21T02:17:12;0.50;;;0.50;;
65825;SDS011;52586;-43.152;172.732;2023-02-21T02:19:58;1.75;;;0.65;;
65825;SDS011;52586;-43.152;172.732;2023-02-21T02:22:59;1.45;;;0.73;;
65825;SDS011;52586;-43.152;172.732;2023-02-21T02:25:59;0.98;;;0.70;;
65825;SDS011;52586;-43.152;172.732;2023-02-21T02:28:57;0.68;;;0.60;;
65825;SDS011;52586;-43.152;172.732;2023-02-21T02:31:48;1.02;;;0.70;;
65825;SDS011;52586;-43.152;172.732;2023-02-21T02:37:34;0.77;;;0.60;;
65825;SDS011;52586;-43.152;172.732;2023-02-21T02:40:09;0.45;;;0.40;;
65825;SDS011;52586;-43.152;172.732;2023-02-21T02:42:50;0.60;;;0.40;;
65825;SDS011;52586;-43.152;172.732;2023-02-21T02:45:29;0.82;;;0.60;;
65825;SDS011;52586;-43.152;172.732;2023-02-21T02:48:06;1.38;;;0.47;;
65825;SDS011;52586;-43.152;172.732;2023-02-21T02:50:44;1.65;;;0.70;;
65825;SDS011;52586;-43.152;172.732;2023-02-21T02:53:18;0.85;;;0.60;;
65825;SDS011;52586;-43.152;172.732;2023-02-21T02:55:50;1.25;;;0.70;;
65825;SDS011;52586;-43.152;172.732;2023-02-21T02:58:24;1.73;;;0.73;;
65825;SDS011;52586;-43.152;172.732;2023-02-21T03:00:59;0.77;;;0.40;;
65825;SDS011;52586;-43.152;172.732;2023-02-21T03:03:45;0.50;;;0.50;;
65825;SDS011;52586;-43.152;172.732;2023-02-21T03:06:32;1.85;;;0.75;;
65825;SDS011;52586;-43.152;172.732;2023-02-21T03:09:08;0.73;;;0.50;;
65825;SDS011;52586;-43.152;172.732;2023-02-21T03:11:46;0.88;;;0.50;;
65825;SDS011;52586;-43.152;172.732;2023-02-21T03:14:20;0.77;;;0.50;;
65825;SDS011;52586;-43.152;172.732;2023-02-21T03:16:54;0.50;;;0.50;;
65825;SDS011;52586;-43.152;172.732;2023-02-21T03:19:30;1.45;;;0.60;;
65825;SDS011;52586;-43.152;172.732;2023-02-21T03:22:06;0.38;;;0.38;;
65825;SDS011;52586;-43.152;172.732;2023-02-21T03:24:39;0.73;;;0.52;;
65825;SDS011;52586;-43.152;172.732;2023-02-21T03:27:11;1.40;;;0.47;;
65825;SDS011;52586;-43.152;172.732;2023-02-21T03:29:44;0.60;;;0.47;;
65825;SDS011;52586;-43.152;172.732;2023-02-21T03:32:16;1.13;;;0.50;;
65825;SDS011;52586;-43.152;172.732;2023-02-21T03:34:49;0.60;;;0.55;;
65825;SDS011;52586;-43.152;172.732;2023-02-21T03:37:28;1.23;;;0.50;;
65825;SDS011;52586;-43.152;172.732;2023-02-21T03:40:00;0.50;;;0.50;;
65825;SDS011;52586;-43.152;172.732;2023-02-21T03:42:33;2.03;;;0.60;;
65825;SDS011;52586;-43.152;172.732;2023-02-21T03:45:04;1.77;;;0.57;;
65825;SDS011;52586;-43.152;172.732;2023-02-21T03:47:35;1.20;;;0.60;;
65825;SDS011;52586;-43.152;172.732;2023-02-21T03:50:06;0.55;;;0.45;;
65825;SDS011;52586;-43.152;172.732;2023-02-21T03:52:39;0.40;;;0.40;;
65825;SDS011;52586;-43.152;172.732;2023-02-21T03:55:09;0.77;;;0.50;;
65825;SDS011;52586;-43.152;172.732;2023-02-21T03:57:40;0.65;;;0.60;;
65825;SDS011;52586;-43.152;172.732;2023-02-21T04:00:11;1.10;;;0.60;;
65825;SDS011;52586;-43.152;172.732;2023-02-21T04:02:42;0.50;;;0.45;;
65825;SDS011;52586;-43.152;172.732;2023-02-21T04:05:13;0.57;;;0.50;;
65825;SDS011;52586;-43.152;172.732;2023-02-21T04:07:46;0.70;;;0.50;;
65825;SDS011;52586;-43.152;172.732;2023-02-21T04:10:16;0.95;;;0.50;;
65825;SDS011;52586;-43.152;172.732;2023-02-21T04:12:47;0.52;;;0.52;;
65825;SDS011;52586;-43.152;172.732;2023-02-21T04:15:18;0.85;;;0.40;;
65825;SDS011;52586;-43.152;172.732;2023-02-21T04:17:48;0.80;;;0.52;;
65825;SDS011;52586;-43.152;172.732;2023-02-21T04:20:19;1.08;;;0.50;;
65825;SDS011;52586;-43.152;172.732;2023-02-21T04:22:52;1.13;;;0.50;;
65825;SDS011;52586;-43.152;172.732;2023-02-21T04:25:22;0.80;;;0.60;;
65825;SDS011;52586;-43.152;172.732;2023-02-21T04:27:53;0.73;;;0.47;;
65825;SDS011;52586;-43.152;172.732;2023-02-21T04:30:23;0.98;;;0.52;;
65825;SDS011;52586;-43.152;172.732;2023-02-21T04:32:54;0.40;;;0.40;;
65825;SDS011;52586;-43.152;172.732;2023-02-21T04:35:28;3.47;;;0.60;;
65825;SDS011;52586;-43.152;172.732;2023-02-21T04:38:01;1.27;;;0.70;;
65825;SDS011;52586;-43.152;172.732;2023-02-21T04:40:32;0.82;;;0.60;;
65825;SDS011;52586;-43.152;172.732;2023-02-21T04:43:02;1.17;;;0.55;;
65825;SDS011;52586;-43.152;172.732;2023-02-21T04:45:33;0.60;;;0.50;;
65825;SDS011;52586;-43.152;172.732;2023-02-21T04:48:04;0.85;;;0.50;;
65825;SDS011;52586;-43.152;172.732;2023-02-21T04:50:34;0.77;;;0.60;;
65825;SDS011;52586;-43.152;172.732;2023-02-21T04:53:07;1.33;;;0.50;;
65825;SDS011;52586;-43.152;172.732;2023-02-21T04:55:38;1.00;;;0.50;;
65825;SDS011;52586;-43.152;172.732;2023-02-21T04:58:08;1.02;;;0.55;;
65825;SDS011;52586;-43.152;172.732;2023-02-21T05:00:39;1.50;;;0.60;;
65825;SDS011;52586;-43.152;172.732;2023-02-21T05:03:10;2.13;;;0.70;;
65825;SDS011;52586;-43.152;172.732;2023-02-21T05:05:40;1.13;;;0.90;;
65825;SDS011;52586;-43.152;172.732;2023-02-21T05:08:13;3.05;;;1.40;;
65825;SDS011;52586;-43.152;172.732;2023-02-21T05:10:43;3.25;;;1.23;;
65825;SDS011;52586;-43.152;172.732;2023-02-21T05:13:14;3.10;;;1.50;;
65825;SDS011;52586;-43.152;172.732;2023-02-21T05:15:45;4.65;;;1.92;;
65825;SDS011;52586;-43.152;172.732;2023-02-21T05:18:16;4.38;;;2.15;;
65825;SDS011;52586;-43.152;172.732;2023-02-21T05:20:48;6.75;;;2.65;;
65825;SDS011;52586;-43.152;172.732;2023-02-21T05:23:21;5.90;;;2.63;;
65825;SDS011;52586;-43.152;172.732;2023-02-21T05:26:01;6.18;;;2.60;;
65825;SDS011;52586;-43.152;172.732;2023-02-21T05:28:32;5.13;;;2.35;;
65825;SDS011;52586;-43.152;172.732;2023-02-21T05:31:03;6.22;;;2.80;;
65825;SDS011;52586;-43.152;172.732;2023-02-21T05:33:35;5.60;;;2.80;;
65825;SDS011;52586;-43.152;172.732;2023-02-21T05:36:06;6.18;;;3.25;;
65825;SDS011;52586;-43.152;172.732;2023-02-21T05:38:45;7.53;;;3.45;;
65825;SDS011;52586;-43.152;172.732;2023-02-21T05:41:17;6.88;;;3.08;;
65825;SDS011;52586;-43.152;172.732;2023-02-21T05:43:48;6.80;;;3.55;;
65825;SDS011;52586;-43.152;172.732;2023-02-21T05:46:20;6.03;;;3.28;;
65825;SDS011;52586;-43.152;172.732;2023-02-21T05:48:52;7.50;;;3.55;;
65825;SDS011;52586;-43.152;172.732;2023-02-21T05:51:24;7.80;;;3.97;;
65825;SDS011;52586;-43.152;172.732;2023-02-21T05:53:56;7.20;;;3.45;;
65825;SDS011;52586;-43.152;172.732;2023-02-21T05:56:27;8.27;;;3.65;;
65825;SDS011;52586;-43.152;172.732;2023-02-21T05:58:58;7.15;;;3.58;;
65825;SDS011;52586;-43.152;172.732;2023-02-21T06:01:29;6.95;;;3.78;;
65825;SDS011;52586;-43.152;172.732;2023-02-21T06:03:59;7.03;;;3.65;;
65825;SDS011;52586;-43.152;172.732;2023-02-21T06:06:30;7.10;;;3.10;;
65825;SDS011;52586;-43.152;172.732;2023-02-21T06:09:03;6.10;;;3.33;;
65825;SDS011;52586;-43.152;172.732;2023-02-21T06:11:34;6.30;;;3.30;;
65825;SDS011;52586;-43.152;172.732;2023-02-21T06:14:08;7.30;;;3.67;;
65825;SDS011;52586;-43.152;172.732;2023-02-21T06:16:44;6.00;;;3.20;;
65825;SDS011;52586;-43.152;172.732;2023-02-21T06:19:14;5.40;;;3.17;;
65825;SDS011;52586;-43.152;172.732;2023-02-21T06:21:46;5.38;;;3.10;;
65825;SDS011;52586;-43.152;172.732;2023-02-21T06:24:18;6.93;;;3.25;;
65825;SDS011;52586;-43.152;172.732;2023-02-21T06:26:53;8.57;;;3.83;;
65825;SDS011;52586;-43.152;172.732;2023-02-21T06:29:24;7.20;;;3.40;;
65825;SDS011;52586;-43.152;172.732;2023-02-21T06:31:55;5.25;;;2.80;;
65825;SDS011;52586;-43.152;172.732;2023-02-21T06:34:26;7.10;;;3.28;;
65825;SDS011;52586;-43.152;172.732;2023-02-21T06:36:57;6.95;;;3.45;;
65825;SDS011;52586;-43.152;172.732;2023-02-21T06:39:30;5.07;;;3.17;;
65825;SDS011;52586;-43.152;172.732;2023-02-21T06:42:00;6.55;;;3.17;;
65825;SDS011;52586;-43.152;172.732;2023-02-21T06:44:31;5.05;;;2.65;;
65825;SDS011;52586;-43.152;172.732;2023-02-21T06:47:02;5.53;;;3.28;;
65825;SDS011;52586;-43.152;172.732;2023-02-21T06:49:33;5.82;;;3.10;;
65825;SDS011;52586;-43.152;172.732;2023-02-21T06:52:04;4.55;;;3.00;;
65825;SDS011;52586;-43.152;172.732;2023-02-21T06:54:36;5.18;;;2.88;;
65825;SDS011;52586;-43.152;172.732;2023-02-21T06:57:07;6.18;;;3.00;;
65825;SDS011;52586;-43.152;172.732;2023-02-21T06:59:38;5.38;;;3.00;;
65825;SDS011;52586;-43.152;172.732;2023-02-21T07:02:08;5.28;;;2.75;;
65825;SDS011;52586;-43.152;172.732;2023-02-21T07:04:45;6.22;;;3.17;;
65825;SDS011;52586;-43.152;172.732;2023-02-21T07:07:16;5.82;;;2.83;;
65825;SDS011;52586;-43.152;172.732;2023-02-21T07:09:49;4.50;;;2.55;;
65825;SDS011;52586;-43.152;172.732;2023-02-21T07:12:19;6.70;;;3.20;;
65825;SDS011;52586;-43.152;172.732;2023-02-21T07:14:50;4.43;;;2.50;;
65825;SDS011;52586;-43.152;172.732;2023-02-21T07:17:21;4.55;;;2.90;;
65825;SDS011;52586;-43.152;172.732;2023-02-21T07:19:52;4.70;;;2.75;;
65825;SDS011;52586;-43.152;172.732;2023-02-21T07:22:29;6.40;;;2.90;;
65825;SDS011;52586;-43.152;172.732;2023-02-21T07:25:05;4.22;;;2.60;;
65825;SDS011;52586;-43.152;172.732;2023-02-21T07:27:35;3.72;;;2.35;;
65825;SDS011;52586;-43.152;172.732;2023-02-21T07:30:06;4.35;;;2.45;;
65825;SDS011;52586;-43.152;172.732;2023-02-21T07:32:38;3.60;;;2.40;;
65825;SDS011;52586;-43.152;172.732;2023-02-21T07:35:08;3.80;;;2.40;;
65825;SDS011;52586;-43.152;172.732;2023-02-21T07:37:39;3.83;;;2.60;;
65825;SDS011;52586;-43.152;172.732;2023-02-21T07:40:12;4.15;;;2.65;;
65825;SDS011;52586;-43.152;172.732;2023-02-21T07:42:43;5.13;;;2.72;;
65825;SDS011;52586;-43.152;172.732;2023-02-21T07:45:14;4.47;;;2.63;;
65825;SDS011;52586;-43.152;172.732;2023-02-21T07:47:45;3.80;;;2.47;;
65825;SDS011;52586;-43.152;172.732;2023-02-21T07:50:18;2.70;;;2.10;;
65825;SDS011;52586;-43.152;172.732;2023-02-21T07:52:49;3.75;;;2.53;;
65825;SDS011;52586;-43.152;172.732;2023-02-21T07:55:21;3.70;;;1.90;;
65825;SDS011;52586;-43.152;172.732;2023-02-21T07:57:52;4.32;;;2.30;;
65825;SDS011;52586;-43.152;172.732;2023-02-21T08:00:23;4.38;;;2.22;;
65825;SDS011;52586;-43.152;172.732;2023-02-21T08:02:56;4.35;;;2.40;;
65825;SDS011;52586;-43.152;172.732;2023-02-21T08:05:27;3.42;;;2.20;;
65825;SDS011;52586;-43.152;172.732;2023-02-21T08:07:58;4.65;;;2.60;;
65825;SDS011;52586;-43.152;172.732;2023-02-21T08:10:31;3.95;;;2.20;;
65825;SDS011;52586;-43.152;172.732;2023-02-21T08:13:01;3.45;;;2.20;;
65825;SDS011;52586;-43.152;172.732;2023-02-21T08:15:32;2.83;;;1.77;;
65825;SDS011;52586;-43.152;172.732;2023-02-21T08:18:03;3.58;;;2.03;;
65825;SDS011;52586;-43.152;172.732;2023-02-21T08:20:34;3.17;;;2.17;;
65825;SDS011;52586;-43.152;172.732;2023-02-21T08:23:04;2.92;;;1.65;;
65825;SDS011;52586;-43.152;172.732;2023-02-21T08:25:37;2.67;;;1.98;;
65825;SDS011;52586;-43.152;172.732;2023-02-21T08:28:07;4.28;;;2.17;;
65825;SDS011;52586;-43.152;172.732;2023-02-21T08:30:38;3.15;;;1.95;;
65825;SDS011;52586;-43.152;172.732;2023-02-21T08:33:09;2.25;;;1.65;;
65825;SDS011;52586;-43.152;172.732;2023-02-21T08:35:40;3.50;;;2.00;;
65825;SDS011;52586;-43.152;172.732;2023-02-21T08:38:10;2.92;;;1.80;;
65825;SDS011;52586;-43.152;172.732;2023-02-21T08:40:43;2.55;;;1.70;;
65825;SDS011;52586;-43.152;172.732;2023-02-21T08:43:14;3.05;;;1.63;;
65825;SDS011;52586;-43.152;172.732;2023-02-21T08:45:44;3.15;;;2.10;;
65825;SDS011;52586;-43.152;172.732;2023-02-21T08:48:15;3.28;;;1.80;;
65825;SDS011;52586;-43.152;172.732;2023-02-21T08:50:46;3.03;;;1.70;;
65825;SDS011;52586;-43.152;172.732;2023-02-21T08:53:17;2.10;;;1.70;;
65825;SDS011;52586;-43.152;172.732;2023-02-21T08:55:50;3.10;;;1.70;;
65825;SDS011;52586;-43.152;172.732;2023-02-21T08:58:20;3.67;;;1.85;;
65825;SDS011;52586;-43.152;172.732;2023-02-21T09:00:51;2.70;;;1.65;;
65825;SDS011;52586;-43.152;172.732;2023-02-21T09:03:22;2.28;;;1.70;;
65825;SDS011;52586;-43.152;172.732;2023-02-21T09:05:52;2.55;;;1.63;;
65825;SDS011;52586;-43.152;172.732;2023-02-21T09:08:23;3.70;;;2.13;;
65825;SDS011;52586;-43.152;172.732;2023-02-21T09:10:58;1.92;;;1.50;;
65825;SDS011;52586;-43.152;172.732;2023-02-21T09:13:28;3.42;;;1.88;;
65825;SDS011;52586;-43.152;172.732;2023-02-21T09:16:00;2.60;;;1.55;;
65825;SDS011;52586;-43.152;172.732;2023-02-21T09:18:31;2.25;;;1.60;;
65825;SDS011;52586;-43.152;172.732;2023-02-21T09:21:02;3.42;;;1.70;;
65825;SDS011;52586;-43.152;172.732;2023-02-21T09:23:34;1.98;;;1.45;;
65825;SDS011;52586;-43.152;172.732;2023-02-21T09:26:07;3.35;;;1.67;;
65825;SDS011;52586;-43.152;172.732;2023-02-21T09:28:38;1.90;;;1.50;;
65825;SDS011;52586;-43.152;172.732;2023-02-21T09:31:08;3.13;;;1.60;;
65825;SDS011;52586;-43.152;172.732;2023-02-21T09:33:39;2.50;;;1.58;;
65825;SDS011;52586;-43.152;172.732;2023-02-21T09:36:10;3.25;;;1.95;;
65825;SDS011;52586;-43.152;172.732;2023-02-21T09:38:41;1.98;;;1.63;;
65825;SDS011;52586;-43.152;172.732;2023-02-21T09:41:14;2.50;;;1.75;;
65825;SDS011;52586;-43.152;172.732;2023-02-21T09:43:45;2.67;;;1.42;;
65825;SDS011;52586;-43.152;172.732;2023-02-21T09:46:19;2.20;;;1.65;;
65825;SDS011;52586;-43.152;172.732;2023-02-21T09:48:57;3.15;;;1.77;;
65825;SDS011;52586;-43.152;172.732;2023-02-21T09:51:29;2.80;;;1.70;;
65825;SDS011;52586;-43.152;172.732;2023-02-21T09:54:03;1.75;;;1.45;;
65825;SDS011;52586;-43.152;172.732;2023-02-21T09:56:37;2.47;;;1.98;;
65825;SDS011;52586;-43.152;172.732;2023-02-21T09:59:09;1.75;;;1.58;;
65825;SDS011;52586;-43.152;172.732;2023-02-21T10:01:44;2.05;;;1.80;;
65825;SDS011;52586;-43.152;172.732;2023-02-21T10:04:24;1.85;;;1.65;;
65825;SDS011;52586;-43.152;172.732;2023-02-21T10:07:06;3.10;;;1.90;;
65825;SDS011;52586;-43.152;172.732;2023-02-21T10:09:41;3.00;;;1.75;;
65825;SDS011;52586;-43.152;172.732;2023-02-21T10:12:19;3.20;;;1.88;;
65825;SDS011;52586;-43.152;172.732;2023-02-21T10:15:13;2.38;;;1.88;;
65825;SDS011;52586;-43.152;172.732;2023-02-21T10:17:52;2.03;;;1.63;;
65825;SDS011;52586;-43.152;172.732;2023-02-21T10:20:29;2.00;;;1.70;;
65825;SDS011;52586;-43.152;172.732;2023-02-21T10:23:02;2.22;;;1.77;;
65825;SDS011;52586;-43.152;172.732;2023-02-21T10:25:42;2.42;;;1.80;;
65825;SDS011;52586;-43.152;172.732;2023-02-21T10:28:17;3.05;;;2.05;;
65825;SDS011;52586;-43.152;172.732;2023-02-21T10:30:50;2.55;;;2.00;;
65825;SDS011;52586;-43.152;172.732;2023-02-21T10:33:22;1.80;;;1.55;;
65825;SDS011;52586;-43.152;172.732;2023-02-21T10:35:54;2.33;;;1.75;;
65825;SDS011;52586;-43.152;172.732;2023-02-21T10:38:25;2.90;;;2.05;;
65825;SDS011;52586;-43.152;172.732;2023-02-21T10:40:56;3.05;;;2.03;;
65825;SDS011;52586;-43.152;172.732;2023-02-21T10:43:32;2.88;;;1.88;;
65825;SDS011;52586;-43.152;172.732;2023-02-21T10:46:07;3.38;;;2.08;;
65825;SDS011;52586;-43.152;172.732;2023-02-21T10:48:41;2.83;;;2.00;;
65825;SDS011;52586;-43.152;172.732;2023-02-21T10:51:14;2.30;;;1.80;;
65825;SDS011;52586;-43.152;172.732;2023-02-21T10:54:15;2.22;;;1.85;;
65825;SDS011;52586;-43.152;172.732;2023-02-21T10:56:48;2.70;;;2.03;;
65825;SDS011;52586;-43.152;172.732;2023-02-21T10:59:22;2.95;;;2.00;;
65825;SDS011;52586;-43.152;172.732;2023-02-21T11:01:55;2.63;;;1.80;;
65825;SDS011;52586;-43.152;172.732;2023-02-21T11:04:27;2.35;;;1.95;;
65825;SDS011;52586;-43.152;172.732;2023-02-21T11:07:01;3.58;;;1.98;;
65825;SDS011;52586;-43.152;172.732;2023-02-21T11:09:37;2.38;;;1.90;;
65825;SDS011;52586;-43.152;172.732;2023-02-21T11:12:22;2.58;;;1.95;;
65825;SDS011;52586;-43.152;172.732;2023-02-21T11:15:15;2.35;;;1.95;;
65825;SDS011;52586;-43.152;172.732;2023-02-21T11:17:46;3.15;;;1.90;;
65825;SDS011;52586;-43.152;172.732;2023-02-21T11:20:33;3.28;;;1.67;;
65825;SDS011;52586;-43.152;172.732;2023-02-21T11:23:03;2.45;;;2.05;;
65825;SDS011;52586;-43.152;172.732;2023-02-21T11:25:46;3.05;;;2.00;;
65825;SDS011;52586;-43.152;172.732;2023-02-21T11:28:18;2.72;;;2.00;;
65825;SDS011;52586;-43.152;172.732;2023-02-21T11:31:02;2.22;;;1.58;;
65825;SDS011;52586;-43.152;172.732;2023-02-21T11:33:47;2.58;;;1.83;;
65825;SDS011;52586;-43.152;172.732;2023-02-21T11:36:26;2.65;;;2.03;;
65825;SDS011;52586;-43.152;172.732;2023-02-21T11:39:04;3.00;;;2.22;;
65825;SDS011;52586;-43.152;172.732;2023-02-21T11:41:47;2.85;;;1.95;;
65825;SDS011;52586;-43.152;172.732;2023-02-21T11:44:22;2.90;;;1.80;;
65825;SDS011;52586;-43.152;172.732;2023-02-21T11:47:00;3.95;;;1.80;;
65825;SDS011;52586;-43.152;172.732;2023-02-21T11:49:38;3.58;;;2.30;;
65825;SDS011;52586;-43.152;172.732;2023-02-21T11:52:30;2.58;;;2.17;;
65825;SDS011;52586;-43.152;172.732;2023-02-21T11:57:42;1.98;;;1.83;;
65825;SDS011;52586;-43.152;172.732;2023-02-21T12:00:19;2.35;;;2.13;;
65825;SDS011;52586;-43.152;172.732;2023-02-21T12:03:23;1.90;;;1.73;;
65825;SDS011;52586;-43.152;172.732;2023-02-21T12:06:08;2.40;;;1.73;;
65825;SDS011;52586;-43.152;172.732;2023-02-21T12:08:46;2.22;;;2.00;;
65825;SDS011;52586;-43.152;172.732;2023-02-21T12:11:26;2.53;;;2.13;;
65825;SDS011;52586;-43.152;172.732;2023-02-21T12:14:15;3.25;;;2.25;;
65825;SDS011;52586;-43.152;172.732;2023-02-21T12:16:58;2.28;;;2.08;;
65825;SDS011;52586;-43.152;172.732;2023-02-21T12:19:43;2.42;;;2.20;;
65825;SDS011;52586;-43.152;172.732;2023-02-21T12:22:34;2.78;;;2.00;;
65825;SDS011;52586;-43.152;172.732;2023-02-21T12:25:21;2.20;;;1.95;;
65825;SDS011;52586;-43.152;172.732;2023-02-21T12:28:01;3.15;;;2.05;;
65825;SDS011;52586;-43.152;172.732;2023-02-21T12:30:46;2.28;;;2.08;;
65825;SDS011;52586;-43.152;172.732;2023-02-21T12:33:28;3.03;;;2.30;;
65825;SDS011;52586;-43.152;172.732;2023-02-21T12:36:12;3.95;;;2.30;;
65825;SDS011;52586;-43.152;172.732;2023-02-21T12:38:53;2.28;;;2.03;;
65825;SDS011;52586;-43.152;172.732;2023-02-21T12:41:34;2.97;;;1.98;;
65825;SDS011;52586;-43.152;172.732;2023-02-21T12:44:17;3.13;;;2.00;;
65825;SDS011;52586;-43.152;172.732;2023-02-21T12:46:51;2.85;;;2.25;;
65825;SDS011;52586;-43.152;172.732;2023-02-21T12:49:27;2.72;;;2.42;;
65825;SDS011;52586;-43.152;172.732;2023-02-21T12:52:05;3.08;;;2.25;;
65825;SDS011;52586;-43.152;172.732;2023-02-21T12:54:44;2.50;;;2.20;;
65825;SDS011;52586;-43.152;172.732;2023-02-21T12:57:21;3.17;;;2.03;;
65825;SDS011;52586;-43.152;172.732;2023-02-21T12:59:58;2.75;;;2.55;;
65825;SDS011;52586;-43.152;172.732;2023-02-21T13:02:38;3.05;;;2.05;;
65825;SDS011;52586;-43.152;172.732;2023-02-21T13:05:18;4.28;;;2.38;;
65825;SDS011;52586;-43.152;172.732;2023-02-21T13:07:55;2.45;;;2.20;;
65825;SDS011;52586;-43.152;172.732;2023-02-21T13:10:32;2.50;;;2.17;;
65825;SDS011;52586;-43.152;172.732;2023-02-21T13:13:20;3.00;;;2.00;;
65825;SDS011;52586;-43.152;172.732;2023-02-21T13:15:53;2.50;;;2.30;;
65825;SDS011;52586;-43.152;172.732;2023-02-21T13:18:25;2.95;;;2.58;;
65825;SDS011;52586;-43.152;172.732;2023-02-21T13:20:59;3.33;;;2.03;;
65825;SDS011;52586;-43.152;172.732;2023-02-21T13:23:38;2.90;;;2.33;;
65825;SDS011;52586;-43.152;172.732;2023-02-21T13:26:18;2.22;;;1.92;;
65825;SDS011;52586;-43.152;172.732;2023-02-21T13:29:08;3.45;;;2.33;;
65825;SDS011;52586;-43.152;172.732;2023-02-21T13:31:45;2.70;;;2.30;;
65825;SDS011;52586;-43.152;172.732;2023-02-21T13:34:18;3.15;;;2.28;;
65825;SDS011;52586;-43.152;172.732;2023-02-21T13:36:52;2.70;;;2.30;;
65825;SDS011;52586;-43.152;172.732;2023-02-21T13:39:30;2.85;;;2.33;;
65825;SDS011;52586;-43.152;172.732;2023-02-21T13:42:04;2.50;;;2.22;;
65825;SDS011;52586;-43.152;172.732;2023-02-21T13:44:39;3.17;;;2.25;;
65825;SDS011;52586;-43.152;172.732;2023-02-21T13:47:13;3.25;;;2.35;;
65825;SDS011;52586;-43.152;172.732;2023-02-21T13:49:48;2.60;;;2.20;;
65825;SDS011;52586;-43.152;172.732;2023-02-21T13:52:25;2.38;;;2.17;;
65825;SDS011;52586;-43.152;172.732;2023-02-21T13:55:24;2.25;;;2.00;;
65825;SDS011;52586;-43.152;172.732;2023-02-21T14:01:12;2.83;;;2.17;;
65825;SDS011;52586;-43.152;172.732;2023-02-21T14:07:11;2.83;;;2.30;;
65825;SDS011;52586;-43.152;172.732;2023-02-21T14:09:42;3.03;;;1.92;;
65825;SDS011;52586;-43.152;172.732;2023-02-21T14:12:17;2.95;;;2.20;;
65825;SDS011;52586;-43.152;172.732;2023-02-21T14:14:53;2.40;;;2.20;;
65825;SDS011;52586;-43.152;172.732;2023-02-21T14:17:34;2.70;;;2.20;;
65825;SDS011;52586;-43.152;172.732;2023-02-21T14:20:12;2.22;;;2.03;;
65825;SDS011;52586;-43.152;172.732;2023-02-21T14:22:44;2.90;;;2.22;;
65825;SDS011;52586;-43.152;172.732;2023-02-21T14:25:19;2.72;;;2.05;;
65825;SDS011;52586;-43.152;172.732;2023-02-21T14:27:54;2.25;;;1.90;;
65825;SDS011;52586;-43.152;172.732;2023-02-21T14:30:29;3.10;;;2.33;;
65825;SDS011;52586;-43.152;172.732;2023-02-21T14:33:13;2.50;;;2.17;;
65825;SDS011;52586;-43.152;172.732;2023-02-21T14:35:53;3.45;;;2.17;;
65825;SDS011;52586;-43.152;172.732;2023-02-21T14:38:31;4.20;;;2.20;;
65825;SDS011;52586;-43.152;172.732;2023-02-21T14:41:15;2.38;;;2.00;;
65825;SDS011;52586;-43.152;172.732;2023-02-21T14:44:04;2.88;;;2.05;;
65825;SDS011;52586;-43.152;172.732;2023-02-21T14:46:52;2.65;;;2.03;;
65825;SDS011;52586;-43.152;172.732;2023-02-21T14:49:42;2.65;;;2.30;;
65825;SDS011;52586;-43.152;172.732;2023-02-21T14:52:35;3.83;;;2.20;;
65825;SDS011;52586;-43.152;172.732;2023-02-21T14:55:28;2.45;;;2.25;;
65825;SDS011;52586;-43.152;172.732;2023-02-21T14:58:31;3.13;;;2.10;;
65825;SDS011;52586;-43.152;172.732;2023-02-21T15:01:37;3.95;;;2.30;;
65825;SDS011;52586;-43.152;172.732;2023-02-21T15:04:29;2.47;;;2.00;;
65825;SDS011;52586;-43.152;172.732;2023-02-21T15:07:07;2.70;;;2.03;;
65825;SDS011;52586;-43.152;172.732;2023-02-21T15:12:38;2.20;;;2.00;;
65825;SDS011;52586;-43.152;172.732;2023-02-21T15:15:13;4.13;;;2.63;;
65825;SDS011;52586;-43.152;172.732;2023-02-21T15:17:55;2.00;;;1.80;;
65825;SDS011;52586;-43.152;172.732;2023-02-21T15:20:30;2.25;;;2.03;;